createdAt,value
2018-09-15T00:00:53.115Z,14.99
2018-09-15T00:03:23.354Z,14.98
2018-09-15T00:05:52.524Z,14.93
2018-09-15T00:08:22.444Z,14.87
2018-09-15T00:10:52.360Z,14.82
2018-09-15T00:13:23.020Z,14.77
2018-09-15T00:15:51.874Z,14.69
2018-09-15T00:18:20.780Z,14.62
2018-09-15T00:20:49.778Z,14.67
2018-09-15T00:23:19.690Z,14.77
2018-09-15T00:25:49.620Z,14.76
2018-09-15T00:28:19.527Z,14.79
2018-09-15T00:30:48.420Z,14.67
2018-09-15T00:33:17.406Z,14.63
2018-09-15T00:35:47.296Z,14.59
2018-09-15T00:38:16.165Z,14.70
2018-09-15T00:40:45.092Z,14.58
2018-09-15T00:43:15.044Z,14.51
2018-09-15T00:45:43.936Z,14.58
2018-09-15T00:48:12.909Z,14.59
2018-09-15T00:50:42.812Z,14.56
2018-09-15T00:53:11.693Z,14.64
2018-09-15T00:55:40.774Z,14.59
2018-09-15T00:58:09.674Z,14.63
2018-09-15T01:00:39.803Z,14.62
2018-09-15T01:03:08.702Z,14.59
2018-09-15T01:05:37.717Z,14.55
2018-09-15T01:08:06.708Z,14.55
2018-09-15T01:10:35.676Z,14.65
2018-09-15T01:13:05.651Z,14.65
2018-09-15T01:15:34.610Z,14.60
2018-09-15T01:18:03.855Z,14.60
2018-09-15T01:20:32.785Z,14.52
2018-09-15T01:23:01.828Z,14.58
2018-09-15T01:25:30.786Z,14.68
2018-09-15T01:27:59.822Z,14.65
2018-09-15T01:30:28.725Z,14.69
2018-09-15T01:32:57.653Z,14.76
2018-09-15T01:35:26.616Z,14.81
2018-09-15T01:37:56.035Z,14.73
2018-09-15T01:40:25.095Z,14.82
2018-09-15T01:42:54.002Z,14.95
2018-09-15T01:45:23.996Z,14.97
2018-09-15T01:47:53.968Z,14.96
2018-09-15T01:50:22.937Z,14.94
2018-09-15T01:52:51.892Z,14.99
2018-09-15T01:55:20.906Z,15.05
2018-09-15T01:57:49.829Z,15.10
2018-09-15T02:00:18.735Z,15.10
2018-09-15T02:02:47.673Z,15.10
2018-09-15T02:05:16.653Z,15.06
2018-09-15T02:07:45.576Z,15.03
2018-09-15T02:10:15.708Z,14.89
2018-09-15T02:12:44.608Z,14.91
2018-09-15T02:15:13.607Z,14.82
2018-09-15T02:17:42.508Z,14.85
2018-09-15T02:20:11.798Z,14.84
2018-09-15T02:22:40.835Z,14.84
2018-09-15T02:25:09.827Z,14.84
2018-09-15T02:27:39.808Z,14.71
2018-09-15T02:30:08.819Z,14.69
2018-09-15T02:32:37.799Z,14.62
2018-09-15T02:35:07.695Z,14.67
2018-09-15T02:37:37.705Z,14.66
2018-09-15T02:40:06.678Z,14.62
2018-09-15T02:42:35.585Z,14.48
2018-09-15T02:45:04.599Z,14.50
2018-09-15T02:47:33.572Z,14.66
2018-09-15T02:50:02.700Z,14.71
2018-09-15T02:52:31.676Z,14.69
2018-09-15T02:55:00.677Z,14.60
2018-09-15T02:57:30.581Z,14.58
2018-09-15T02:59:59.449Z,14.56
2018-09-15T03:02:28.338Z,14.35
2018-09-15T03:04:57.422Z,14.29
2018-09-15T03:07:26.419Z,14.33
2018-09-15T03:09:55.328Z,14.44
2018-09-15T03:12:24.244Z,14.40
2018-09-15T03:14:53.254Z,14.46
2018-09-15T03:17:22.207Z,14.50
2018-09-15T03:19:51.129Z,14.40
2018-09-15T03:22:21.066Z,14.36
2018-09-15T03:24:50.036Z,14.35
2018-09-15T03:27:19.025Z,14.35
2018-09-15T03:29:48.921Z,14.35
2018-09-15T03:32:18.867Z,14.30
2018-09-15T03:34:47.856Z,14.38
2018-09-15T03:37:17.006Z,14.41
2018-09-15T03:39:46.922Z,14.34
2018-09-15T03:42:15.877Z,14.36
2018-09-15T03:44:44.848Z,14.26
2018-09-15T03:47:13.744Z,14.19
2018-09-15T03:49:42.704Z,14.19
2018-09-15T03:52:11.655Z,14.28
2018-09-15T03:54:40.596Z,14.18
2018-09-15T03:57:09.535Z,14.07
2018-09-15T03:59:38.535Z,14.01
2018-09-15T04:02:07.538Z,14.16
2018-09-15T04:04:36.443Z,14.08
2018-09-15T04:07:05.360Z,14.18
2018-09-15T04:09:35.329Z,14.05
2018-09-15T04:12:06.239Z,14.12
2018-09-15T04:14:35.418Z,14.02
2018-09-15T04:17:04.291Z,14.07
2018-09-15T04:19:33.169Z,13.98
2018-09-15T04:22:02.607Z,13.98
2018-09-15T04:24:31.593Z,13.76
2018-09-15T04:27:01.527Z,13.83
2018-09-15T04:29:30.512Z,13.87
2018-09-15T04:32:00.542Z,13.93
2018-09-15T04:34:29.543Z,13.99
2018-09-15T04:36:58.500Z,13.96
2018-09-15T04:39:27.411Z,13.99
2018-09-15T04:41:57.345Z,14.02
2018-09-15T04:44:26.311Z,13.99
2018-09-15T04:46:55.274Z,14.00
2018-09-15T04:49:24.235Z,13.98
2018-09-15T04:51:54.117Z,13.93
2018-09-15T04:54:23.111Z,13.85
2018-09-15T04:56:52.095Z,13.82
2018-09-15T04:59:22.032Z,13.81
2018-09-15T05:01:50.982Z,13.75
2018-09-15T05:04:20.105Z,13.75
2018-09-15T05:06:49.102Z,13.70
2018-09-15T05:09:18.117Z,13.79
2018-09-15T05:11:47.575Z,13.75
2018-09-15T05:14:16.992Z,13.83
2018-09-15T05:16:45.892Z,13.91
2018-09-15T05:19:15.763Z,13.85
2018-09-15T05:21:44.750Z,13.93
2018-09-15T05:24:13.690Z,13.91
2018-09-15T05:26:43.596Z,13.94
2018-09-15T05:29:13.509Z,13.97
2018-09-15T05:31:43.468Z,13.99
2018-09-15T05:34:12.421Z,14.05
2018-09-15T05:36:41.304Z,14.00
2018-09-15T05:39:12.767Z,13.93
2018-09-15T05:41:43.639Z,13.98
2018-09-15T05:44:12.652Z,13.91
2018-09-15T05:46:42.570Z,13.99
2018-09-15T05:49:11.524Z,14.00
2018-09-15T05:51:40.558Z,14.06
2018-09-15T05:54:10.540Z,14.02
2018-09-15T05:56:39.687Z,14.04
2018-09-15T05:59:08.632Z,14.07
2018-09-15T06:01:37.630Z,14.17
2018-09-15T06:04:06.595Z,14.23
2018-09-15T06:06:35.648Z,14.22
2018-09-15T06:09:06.756Z,14.21
2018-09-15T06:11:36.883Z,14.26
2018-09-15T06:14:05.959Z,14.33
2018-09-15T06:16:34.964Z,14.39
2018-09-15T06:19:04.059Z,14.38
2018-09-15T06:21:33.147Z,14.46
2018-09-15T06:24:02.655Z,14.49
2018-09-15T06:26:33.232Z,14.57
2018-09-15T06:29:02.155Z,14.64
2018-09-15T06:31:32.119Z,14.65
2018-09-15T06:34:02.090Z,14.64
2018-09-15T06:36:32.071Z,14.64
2018-09-15T06:39:00.992Z,14.70
2018-09-15T06:41:30.201Z,14.75
2018-09-15T06:43:59.176Z,14.82
2018-09-15T06:46:28.428Z,14.88
2018-09-15T06:48:57.416Z,14.97
2018-09-15T06:51:26.381Z,15.04
2018-09-15T06:53:58.394Z,15.00
2018-09-15T06:56:28.393Z,15.03
2018-09-15T06:58:57.372Z,15.11
2018-09-15T07:01:26.456Z,15.10
2018-09-15T07:03:55.452Z,15.06
2018-09-15T07:06:24.406Z,15.08
2018-09-15T07:08:53.549Z,15.09
2018-09-15T07:11:23.441Z,15.23
2018-09-15T07:13:53.335Z,15.31
2018-09-15T07:16:22.222Z,15.32
2018-09-15T07:18:51.277Z,15.39
2018-09-15T07:21:20.256Z,15.42
2018-09-15T07:23:51.148Z,15.44
2018-09-15T07:26:20.098Z,15.34
2018-09-15T07:28:49.098Z,15.46
2018-09-15T07:31:18.222Z,15.44
2018-09-15T07:33:47.185Z,15.61
2018-09-15T07:36:17.377Z,15.64
2018-09-15T07:38:46.364Z,15.58
2018-09-15T07:41:15.314Z,15.71
2018-09-15T07:43:44.233Z,15.66
2018-09-15T07:46:14.283Z,15.64
2018-09-15T07:48:43.250Z,15.69
2018-09-15T07:51:12.122Z,15.70
2018-09-15T07:53:41.025Z,15.78
2018-09-15T07:56:10.199Z,15.87
2018-09-15T07:58:39.201Z,15.83
2018-09-15T08:01:08.077Z,15.79
2018-09-15T08:03:37.127Z,15.81
2018-09-15T08:06:06.197Z,15.83
2018-09-15T08:08:35.104Z,15.89
2018-09-15T08:11:05.006Z,15.94
2018-09-15T08:13:34.935Z,15.90
2018-09-15T08:16:04.314Z,15.99
2018-09-15T08:18:33.319Z,15.99
2018-09-15T08:21:02.595Z,16.07
2018-09-15T08:23:31.510Z,16.16
2018-09-15T08:26:01.462Z,16.27
2018-09-15T08:28:31.479Z,16.25
2018-09-15T08:31:00.643Z,16.28
2018-09-15T08:33:29.527Z,16.34
2018-09-15T08:35:59.575Z,16.39
2018-09-15T08:38:28.587Z,16.32
2018-09-15T08:40:57.528Z,16.40
2018-09-15T08:43:27.414Z,16.53
2018-09-15T08:45:56.346Z,16.56
2018-09-15T08:48:25.284Z,16.60
2018-09-15T08:50:54.267Z,16.56
2018-09-15T08:53:24.300Z,16.56
2018-09-15T08:55:54.256Z,16.52
2018-09-15T08:58:23.143Z,16.48
2018-09-15T09:00:52.180Z,16.45
2018-09-15T09:03:22.244Z,16.53
2018-09-15T09:05:53.795Z,16.52
2018-09-15T09:08:24.623Z,16.54
2018-09-15T09:10:53.555Z,16.63
2018-09-15T09:13:23.478Z,16.70
2018-09-15T09:15:52.593Z,16.66
2018-09-15T09:18:21.725Z,16.80
2018-09-15T09:20:50.804Z,16.90
2018-09-15T09:23:19.734Z,16.80
2018-09-15T09:25:49.646Z,16.80
2018-09-15T09:28:18.559Z,16.91
2018-09-15T09:30:47.535Z,17.07
2018-09-15T09:33:16.690Z,17.10
2018-09-15T09:35:45.902Z,17.15
2018-09-15T09:38:14.887Z,17.24
2018-09-15T09:40:43.805Z,17.30
2018-09-15T09:43:13.779Z,17.41
2018-09-15T09:45:43.669Z,17.54
2018-09-15T09:48:12.695Z,17.73
2018-09-15T09:50:41.943Z,17.81
2018-09-15T09:53:10.946Z,17.76
2018-09-15T09:55:40.837Z,17.54
2018-09-15T09:58:10.791Z,17.43
2018-09-15T10:00:45.178Z,17.46
2018-09-15T10:03:15.449Z,17.55
2018-09-15T10:05:44.393Z,17.65
2018-09-15T10:08:13.274Z,17.66
2018-09-15T10:10:42.175Z,17.66
2018-09-15T10:13:11.442Z,17.68
2018-09-15T10:15:41.978Z,17.73
2018-09-15T10:18:12.688Z,17.74
2018-09-15T10:20:42.642Z,17.81
2018-09-15T10:23:12.600Z,17.84
2018-09-15T10:25:41.691Z,17.93
2018-09-15T10:28:10.568Z,18.02
2018-09-15T10:30:39.661Z,18.15
2018-09-15T10:33:09.608Z,18.05
2018-09-15T10:35:39.644Z,18.07
2018-09-15T10:38:08.640Z,18.11
2018-09-15T10:40:37.603Z,18.08
2018-09-15T10:43:06.648Z,18.08
2018-09-15T10:45:35.599Z,18.07
2018-09-15T10:48:04.542Z,18.07
2018-09-15T10:50:34.491Z,18.04
2018-09-15T10:53:03.458Z,18.08
2018-09-15T10:55:33.350Z,18.15
2018-09-15T10:58:02.278Z,18.21
2018-09-15T11:00:31.381Z,18.40
2018-09-15T11:03:00.258Z,18.57
2018-09-15T11:05:29.244Z,18.56
2018-09-15T11:07:59.214Z,18.56
2018-09-15T11:10:28.293Z,18.45
2018-09-15T11:12:57.237Z,18.45
2018-09-15T11:15:27.159Z,18.56
2018-09-15T11:17:56.278Z,18.66
2018-09-15T11:20:26.174Z,18.79
2018-09-15T11:22:55.312Z,18.83
2018-09-15T11:25:24.648Z,18.88
2018-09-15T11:27:54.344Z,18.94
2018-09-15T11:30:23.355Z,18.99
2018-09-15T11:32:52.377Z,18.99
2018-09-15T11:35:22.879Z,18.87
2018-09-15T11:37:52.296Z,18.80
2018-09-15T11:40:23.033Z,18.80
2018-09-15T11:42:54.422Z,18.81
2018-09-15T11:45:23.373Z,18.83
2018-09-15T11:47:52.654Z,18.84
2018-09-15T11:50:22.576Z,18.87
2018-09-15T11:52:51.521Z,18.96
2018-09-15T11:55:20.482Z,19.00
2018-09-15T11:57:50.568Z,19.00
2018-09-15T12:00:23.153Z,18.95
2018-09-15T12:02:52.098Z,18.92
2018-09-15T12:05:21.127Z,18.87
2018-09-15T12:07:50.135Z,18.88
2018-09-15T12:10:19.046Z,18.85
2018-09-15T12:12:49.374Z,18.80
2018-09-15T12:15:18.705Z,18.78
2018-09-15T12:17:47.800Z,18.76
2018-09-15T12:20:17.724Z,18.72
2018-09-15T12:22:47.643Z,18.68
2018-09-15T12:25:16.555Z,18.64
2018-09-15T12:27:46.700Z,18.64
2018-09-15T12:30:15.761Z,18.53
2018-09-15T12:32:44.713Z,18.41
2018-09-15T12:35:13.707Z,18.40
2018-09-15T12:37:43.606Z,18.35
2018-09-15T12:40:12.611Z,18.33
2018-09-15T12:42:42.520Z,18.31
2018-09-15T12:45:12.505Z,18.32
2018-09-15T12:47:41.389Z,18.30
2018-09-15T12:50:10.352Z,18.45
2018-09-15T12:52:40.322Z,18.51
2018-09-15T12:55:09.209Z,18.53
2018-09-15T12:57:39.253Z,18.76
2018-09-15T13:00:08.128Z,19.23
2018-09-15T13:02:37.087Z,19.40
2018-09-15T13:05:06.023Z,19.31
2018-09-15T13:07:35.930Z,19.27
2018-09-15T13:10:05.265Z,19.28
2018-09-15T13:12:34.271Z,19.18
2018-09-15T13:15:04.266Z,19.08
2018-09-15T13:17:34.288Z,19.05
2018-09-15T13:20:03.263Z,19.07
2018-09-15T13:22:32.437Z,18.99
2018-09-15T13:25:01.345Z,18.96
2018-09-15T13:27:31.334Z,18.93
2018-09-15T13:30:00.339Z,18.88
2018-09-15T13:32:29.287Z,18.87
2018-09-15T13:34:58.449Z,18.82
2018-09-15T13:37:28.311Z,18.77
2018-09-15T13:39:57.228Z,18.75
2018-09-15T13:42:27.162Z,18.73
2018-09-15T13:44:57.191Z,18.72
2018-09-15T13:47:26.146Z,18.72
2018-09-15T13:49:55.246Z,18.69
2018-09-15T13:52:26.208Z,18.66
2018-09-15T13:54:55.090Z,18.66
2018-09-15T13:57:23.990Z,18.70
2018-09-15T13:59:54.961Z,18.71
2018-09-15T14:02:24.952Z,18.76
2018-09-15T14:04:54.010Z,18.78
2018-09-15T14:07:23.850Z,18.79
2018-09-15T14:09:53.760Z,18.80
2018-09-15T14:12:23.706Z,18.85
2018-09-15T14:14:52.680Z,18.88
2018-09-15T14:17:21.677Z,18.89
2018-09-15T14:19:50.661Z,18.90
2018-09-15T14:22:19.729Z,18.92
2018-09-15T14:24:48.649Z,18.94
2018-09-15T14:27:18.548Z,19.03
2018-09-15T14:29:48.847Z,19.06
2018-09-15T14:32:17.778Z,19.13
2018-09-15T14:34:47.002Z,19.16
2018-09-15T14:37:17.136Z,19.16
2018-09-15T14:39:46.098Z,19.12
2018-09-15T14:42:15.984Z,19.13
2018-09-15T14:44:44.889Z,19.14
2018-09-15T14:47:14.796Z,19.10
2018-09-15T14:49:44.785Z,19.13
2018-09-15T14:52:13.780Z,19.13
2018-09-15T14:54:43.737Z,19.15
2018-09-15T14:57:12.611Z,19.18
2018-09-15T14:59:42.614Z,19.17
2018-09-15T15:02:11.559Z,19.19
2018-09-15T15:04:40.546Z,19.15
2018-09-15T15:07:09.529Z,19.15
2018-09-15T15:09:39.780Z,19.16
2018-09-15T15:12:10.687Z,19.18
2018-09-15T15:14:39.616Z,19.18
2018-09-15T15:17:09.278Z,19.22
2018-09-15T15:19:39.458Z,19.23
2018-09-15T15:22:09.381Z,19.20
2018-09-15T15:24:38.340Z,19.25
2018-09-15T15:27:07.403Z,19.25
2018-09-15T15:29:37.364Z,19.27
2018-09-15T15:32:06.681Z,19.26
2018-09-15T15:34:36.823Z,19.24
2018-09-15T15:37:05.961Z,19.30
2018-09-15T15:39:34.967Z,19.29
2018-09-15T15:42:03.945Z,19.27
2018-09-15T15:44:33.133Z,19.25
2018-09-15T15:47:03.446Z,19.29
2018-09-15T15:49:33.049Z,19.27
2018-09-15T15:52:03.884Z,19.27
2018-09-15T15:54:32.893Z,19.30
2018-09-15T15:57:01.970Z,19.28
2018-09-15T15:59:30.939Z,19.28
2018-09-15T16:01:59.842Z,19.27
2018-09-15T16:04:28.833Z,19.26
2018-09-15T16:06:57.722Z,19.28
2018-09-15T16:09:26.651Z,19.29
2018-09-15T16:11:56.603Z,19.31
2018-09-15T16:14:25.545Z,19.33
2018-09-15T16:16:55.491Z,19.39
2018-09-15T16:19:24.456Z,19.44
2018-09-15T16:21:54.370Z,19.38
2018-09-15T16:24:24.288Z,19.41
2018-09-15T16:26:53.311Z,19.40
2018-09-15T16:29:23.292Z,19.35
2018-09-15T16:31:52.211Z,19.33
2018-09-15T16:34:21.159Z,19.31
2018-09-15T16:36:50.112Z,19.28
2018-09-15T16:39:19.083Z,19.27
2018-09-15T16:41:48.095Z,19.23
2018-09-15T16:44:17.087Z,19.22
2018-09-15T16:46:47.124Z,19.18
2018-09-15T16:49:16.106Z,19.12
2018-09-15T16:51:44.946Z,19.08
2018-09-15T16:54:13.887Z,19.05
2018-09-15T16:56:42.870Z,19.02
2018-09-15T16:59:11.825Z,18.98
2018-09-15T17:01:40.766Z,18.94
2018-09-15T17:04:09.704Z,18.93
2018-09-15T17:06:39.633Z,18.88
2018-09-15T17:09:10.078Z,18.86
2018-09-15T17:11:39.062Z,18.85
2018-09-15T17:14:10.025Z,18.85
2018-09-15T17:16:39.110Z,18.83
2018-09-15T17:19:08.048Z,18.81
2018-09-15T17:21:36.956Z,18.79
2018-09-15T17:24:05.892Z,18.77
2018-09-15T17:26:35.927Z,18.75
2018-09-15T17:29:04.937Z,18.73
2018-09-15T17:31:33.848Z,18.60
2018-09-15T17:34:02.779Z,18.51
2018-09-15T17:36:32.669Z,18.48
2018-09-15T17:39:01.666Z,18.44
2018-09-15T17:41:31.624Z,18.35
2018-09-15T17:44:00.563Z,18.31
2018-09-15T17:46:30.526Z,18.23
2018-09-15T17:48:59.513Z,18.18
2018-09-15T17:51:29.587Z,18.10
2018-09-15T17:53:59.568Z,18.01
2018-09-15T17:56:28.528Z,17.90
2018-09-15T17:58:57.505Z,17.83
2018-09-15T18:01:27.398Z,17.80
2018-09-15T18:03:57.333Z,17.76
2018-09-15T18:06:26.261Z,17.69
2018-09-15T18:08:55.216Z,17.64
2018-09-15T18:11:24.456Z,17.56
2018-09-15T18:13:53.402Z,17.53
2018-09-15T18:16:22.373Z,17.44
2018-09-15T18:19:20.859Z,17.42
2018-09-15T18:21:49.813Z,17.23
2018-09-15T18:24:19.713Z,17.22
2018-09-15T18:26:49.670Z,17.14
2018-09-15T18:29:18.868Z,17.14
2018-09-15T18:31:47.856Z,17.12
2018-09-15T18:34:16.823Z,17.09
2018-09-15T18:36:46.943Z,17.02
2018-09-15T18:39:16.720Z,16.98
2018-09-15T18:41:46.638Z,16.91
2018-09-15T18:44:15.737Z,16.89
2018-09-15T18:46:44.740Z,16.88
2018-09-15T18:49:13.777Z,16.86
2018-09-15T18:51:42.732Z,16.88
2018-09-15T18:54:11.717Z,16.72
2018-09-15T18:56:40.744Z,16.70
2018-09-15T18:59:09.712Z,16.67
2018-09-15T19:01:39.648Z,16.58
2018-09-15T19:04:09.599Z,16.55
2018-09-15T19:06:39.585Z,16.57
2018-09-15T19:09:10.920Z,16.55
2018-09-15T19:11:40.414Z,16.50
2018-09-15T19:14:10.542Z,16.44
2018-09-15T19:16:40.406Z,16.46
2018-09-15T19:19:09.341Z,16.41
2018-09-15T19:21:39.238Z,16.26
2018-09-15T19:24:09.201Z,16.29
2018-09-15T19:26:38.403Z,16.32
2018-09-15T19:29:07.257Z,16.30
2018-09-15T19:31:36.412Z,16.26
2018-09-15T19:34:05.329Z,16.21
2018-09-15T19:36:35.288Z,16.14
2018-09-15T19:39:06.412Z,16.22
2018-09-15T19:41:35.393Z,16.15
2018-09-15T19:44:05.317Z,16.12
2018-09-15T19:46:34.475Z,16.12
2018-09-15T19:49:04.432Z,16.01
2018-09-15T19:51:33.403Z,15.92
2018-09-15T19:54:03.343Z,15.91
2018-09-15T19:56:33.247Z,15.87
2018-09-15T19:59:03.272Z,15.86
2018-09-15T20:01:32.147Z,15.90
2018-09-15T20:04:02.102Z,15.91
2018-09-15T20:06:32.054Z,15.89
2018-09-15T20:09:00.970Z,15.93
2018-09-15T20:11:30.891Z,15.79
2018-09-15T20:13:59.865Z,15.78
2018-09-15T20:16:27.751Z,15.73
2018-09-15T20:18:56.672Z,15.56
2018-09-15T20:21:24.460Z,15.53
2018-09-15T20:23:53.469Z,15.58
2018-09-15T20:26:22.400Z,15.61
2018-09-15T20:28:53.358Z,15.68
2018-09-15T20:31:22.463Z,15.60
2018-09-15T20:33:51.415Z,15.60
2018-09-15T20:36:20.552Z,15.59
2018-09-15T20:38:50.623Z,15.67
2018-09-15T20:41:19.633Z,15.58
2018-09-15T20:43:49.524Z,15.59
2018-09-15T20:46:18.414Z,15.65
2018-09-15T20:48:48.369Z,15.64
2018-09-15T20:51:17.322Z,15.59
2018-09-15T20:53:46.220Z,15.51
2018-09-15T20:56:15.270Z,15.48
2018-09-15T20:58:44.207Z,15.55
2018-09-15T21:01:13.220Z,15.50
2018-09-15T21:03:42.465Z,15.42
2018-09-15T21:06:11.434Z,15.40
2018-09-15T21:08:40.356Z,15.37
2018-09-15T21:11:09.256Z,15.28
2018-09-15T21:13:38.180Z,15.24
2018-09-15T21:16:07.403Z,15.31
2018-09-15T21:18:36.539Z,15.16
2018-09-15T21:21:05.462Z,15.16
2018-09-15T21:23:34.416Z,15.20
2018-09-15T21:26:03.288Z,15.18
2018-09-15T21:28:32.171Z,15.22
2018-09-15T21:31:01.133Z,15.19
2018-09-15T21:33:30.109Z,15.15
2018-09-15T21:35:58.981Z,15.03
2018-09-15T21:38:27.901Z,14.95
2018-09-15T21:40:56.817Z,14.89
2018-09-15T21:43:25.742Z,14.90
2018-09-15T21:45:54.666Z,14.87
2018-09-15T21:48:24.583Z,14.87
2018-09-15T21:50:53.604Z,14.97
2018-09-15T21:53:22.584Z,14.90
2018-09-15T21:55:51.615Z,14.80
2018-09-15T21:58:20.599Z,14.74
2018-09-15T22:00:50.788Z,14.74
2018-09-15T22:03:23.281Z,14.76
2018-09-15T22:05:53.242Z,14.78
2018-09-15T22:08:23.203Z,14.76
2018-09-15T22:10:52.631Z,14.75
2018-09-15T22:13:21.646Z,14.71
2018-09-15T22:15:50.824Z,14.69
2018-09-15T22:18:19.800Z,14.67
2018-09-15T22:20:49.770Z,14.67
2018-09-15T22:23:19.767Z,14.63
2018-09-15T22:25:48.710Z,14.49
2018-09-15T22:28:17.685Z,14.45
2018-09-15T22:30:48.646Z,14.53
2018-09-15T22:33:17.795Z,14.48
2018-09-15T22:35:46.696Z,14.48
2018-09-15T22:38:15.643Z,14.42
2018-09-15T22:40:44.602Z,14.38
2018-09-15T22:43:13.569Z,14.46
2018-09-15T22:45:42.531Z,14.46
2018-09-15T22:48:11.438Z,14.42
2018-09-15T22:50:41.423Z,14.31
2018-09-15T22:53:10.465Z,14.31
2018-09-15T22:55:39.457Z,14.21
2018-09-15T22:58:09.420Z,14.13
2018-09-15T23:00:38.595Z,14.10
2018-09-15T23:03:07.486Z,14.17
2018-09-15T23:05:37.481Z,14.19
2018-09-15T23:08:06.484Z,14.09
2018-09-15T23:10:35.516Z,14.21
2018-09-15T23:13:04.410Z,14.22
2018-09-15T23:15:33.498Z,14.23
2018-09-15T23:18:02.493Z,14.17
2018-09-15T23:20:31.625Z,14.18
2018-09-15T23:23:00.638Z,14.17
2018-09-15T23:25:29.542Z,14.12
2018-09-15T23:27:59.624Z,13.97
2018-09-15T23:30:29.664Z,14.04
2018-09-15T23:32:58.601Z,14.08
2018-09-15T23:35:27.848Z,14.06
2018-09-15T23:37:56.803Z,14.08
2018-09-15T23:40:26.101Z,13.91
2018-09-15T23:42:55.085Z,13.89
2018-09-15T23:45:24.409Z,13.90
2018-09-15T23:47:54.385Z,13.88
2018-09-15T23:50:23.373Z,13.93
2018-09-15T23:52:52.264Z,13.90
2018-09-15T23:55:21.246Z,13.81
2018-09-15T23:57:50.260Z,13.87
